Time;durP1;ratioP1;P1;durP2;ratioP2;P2;SDS_P1;SDS_P2;PMS_P1;PMS_P2;Temp;Humidity;BMP_temperature;BMP_pressure;BME280_temperature;BME280_humidity;BME280_pressure;Samples;Min_cycle;Max_cycle;Signal;HPM_P1;HPM_P2
2021/12/09 00:01:16;;;;;;;17.92;7.50;;;1.00;99.90;;;;;;5054083;28;20362;-83
2021/12/09 00:03:42;;;;;;;16.08;7.68;;;0.90;99.90;;;;;;5054179;28;20021;-83
2021/12/09 00:06:09;;;;;;;16.33;7.07;;;0.80;99.90;;;;;;5053804;28;20104;-83
2021/12/09 00:08:37;;;;;;;15.98;7.20;;;0.90;99.90;;;;;;5054045;28;20051;-82
2021/12/09 00:11:06;;;;;;;17.73;7.85;;;0.90;99.90;;;;;;5054048;28;20477;-83
2021/12/09 00:13:32;;;;;;;13.23;7.60;;;0.90;99.90;;;;;;5053979;28;20022;-83
2021/12/09 00:15:58;;;;;;;14.95;7.00;;;0.80;99.90;;;;;;5053706;28;20017;-83
2021/12/09 00:18:25;;;;;;;16.13;7.78;;;0.80;99.90;;;;;;5053637;28;20025;-83
2021/12/09 00:20:51;;;;;;;14.45;7.45;;;0.80;99.90;;;;;;5053601;28;20026;-83
2021/12/09 00:23:16;;;;;;;17.83;7.30;;;0.80;99.90;;;;;;5035754;28;20033;-83
2021/12/09 00:25:42;;;;;;;12.85;6.88;;;0.90;99.90;;;;;;5053766;28;20029;-83
2021/12/09 00:28:08;;;;;;;15.88;7.50;;;0.80;99.90;;;;;;5053644;28;20036;-82
2021/12/09 00:30:35;;;;;;;14.95;8.00;;;0.90;99.90;;;;;;5053673;28;20079;-83
2021/12/09 00:33:02;;;;;;;14.02;7.82;;;0.80;99.90;;;;;;5053881;28;20025;-83
2021/12/09 00:35:33;;;;;;;15.68;8.52;;;0.90;99.90;;;;;;5053560;28;20028;-83
2021/12/09 00:38:04;;;;;;;18.00;7.50;;;0.80;99.90;;;;;;5055456;28;20075;-83
2021/12/09 00:40:30;;;;;;;13.65;8.00;;;0.80;99.90;;;;;;5053326;28;20049;-83
2021/12/09 00:42:56;;;;;;;15.57;7.43;;;0.80;99.90;;;;;;5040075;28;20028;-83
2021/12/09 00:45:23;;;;;;;17.65;7.50;;;0.70;99.90;;;;;;5057300;28;20032;-83
2021/12/09 00:47:49;;;;;;;21.48;7.65;;;0.80;99.90;;;;;;5057386;28;20036;-83
2021/12/09 00:50:15;;;;;;;14.32;7.80;;;0.70;99.90;;;;;;5057286;28;20025;-82
2021/12/09 00:52:41;;;;;;;17.75;8.70;;;0.70;99.90;;;;;;5057489;28;20036;-83
2021/12/09 00:55:08;;;;;;;16.25;8.30;;;0.70;99.90;;;;;;5057463;28;20570;-83
2021/12/09 00:57:36;;;;;;;16.52;8.00;;;0.80;99.90;;;;;;5039697;28;20029;-83
2021/12/09 01:00:05;;;;;;;19.60;8.27;;;0.80;99.90;;;;;;5057114;28;20024;-83
2021/12/09 01:02:31;;;;;;;13.95;7.75;;;0.80;99.90;;;;;;5057024;28;20507;-83
2021/12/09 01:05:09;;;;;;;18.27;8.65;;;0.70;99.90;;;;;;5057336;28;20025;-83
2021/12/09 01:07:35;;;;;;;15.00;8.68;;;0.70;99.90;;;;;;5056953;28;20032;-83
2021/12/09 01:10:03;;;;;;;14.13;7.85;;;0.80;99.90;;;;;;5057144;28;20098;-83
2021/12/09 01:15:51;;;;;;;15.65;7.85;;;0.70;99.90;;;;;;5056909;28;20024;-83
2021/12/09 01:18:16;;;;;;;17.63;7.80;;;0.70;99.90;;;;;;5056730;28;20025;-83
2021/12/09 01:20:42;;;;;;;16.40;7.47;;;0.60;99.90;;;;;;5056855;28;20456;-83
2021/12/09 01:23:07;;;;;;;18.67;8.43;;;0.70;99.90;;;;;;5056796;28;20108;-83
2021/12/09 01:25:37;;;;;;;16.73;8.38;;;0.80;99.90;;;;;;5056656;28;20784;-83
2021/12/09 01:28:13;;;;;;;16.63;8.27;;;0.80;99.90;;;;;;5056881;28;20021;-83
2021/12/09 01:30:39;;;;;;;17.50;8.80;;;0.70;99.90;;;;;;5056859;28;20111;-83
2021/12/09 01:33:06;;;;;;;22.02;9.20;;;0.70;99.90;;;;;;5038588;28;20497;-83
2021/12/09 01:35:34;;;;;;;22.15;8.93;;;0.80;99.90;;;;;;5056783;28;20465;-83
2021/12/09 01:38:08;;;;;;;15.88;8.30;;;0.80;99.90;;;;;;5038644;28;20033;-83
2021/12/09 01:40:34;;;;;;;17.15;8.60;;;0.90;99.90;;;;;;5071371;28;20055;-83
2021/12/09 01:43:00;;;;;;;20.05;9.35;;;1.00;99.90;;;;;;5076316;28;20036;-84
2021/12/09 01:45:26;;;;;;;23.70;9.27;;;1.00;99.90;;;;;;5058903;28;20016;-83
2021/12/09 01:47:53;;;;;;;16.67;8.23;;;1.00;99.90;;;;;;5076134;28;20025;-83
2021/12/09 01:50:19;;;;;;;17.10;8.80;;;1.10;99.90;;;;;;5075072;28;20419;-83
2021/12/09 01:52:59;;;;;;;18.63;9.38;;;1.00;99.90;;;;;;5076105;28;20434;-83
2021/12/09 01:55:26;;;;;;;19.23;9.82;;;1.00;99.90;;;;;;5076178;28;20052;-83
2021/12/09 02:01:13;;;;;;;20.13;9.00;;;1.00;99.90;;;;;;5076059;28;20032;-83
2021/12/09 02:03:39;;;;;;;23.33;8.68;;;0.90;99.90;;;;;;5075972;28;20024;-83
2021/12/09 02:06:04;;;;;;;15.27;8.63;;;0.90;99.90;;;;;;5076006;28;20029;-83
2021/12/09 02:08:30;;;;;;;16.65;8.93;;;0.90;99.90;;;;;;5076315;28;20024;-83
2021/12/09 02:10:56;;;;;;;16.45;8.45;;;0.80;99.90;;;;;;5075869;28;20017;-83
2021/12/09 02:13:21;;;;;;;19.08;9.18;;;1.10;99.90;;;;;;5069790;28;20100;-83
2021/12/09 02:15:48;;;;;;;16.88;8.38;;;1.20;99.90;;;;;;5054447;28;20032;-83
2021/12/09 02:18:14;;;;;;;15.02;8.00;;;1.00;99.90;;;;;;5055855;28;20044;-83
2021/12/09 02:20:42;;;;;;;19.23;9.73;;;1.00;99.90;;;;;;5055526;28;20108;-83
2021/12/09 02:23:11;;;;;;;17.65;8.73;;;1.00;99.90;;;;;;5055517;28;20457;-83
2021/12/09 02:25:44;;;;;;;19.60;9.30;;;1.00;99.90;;;;;;5056085;28;20028;-83
2021/12/09 02:28:13;;;;;;;21.38;8.98;;;0.80;99.90;;;;;;5055603;28;20035;-83
2021/12/09 02:30:39;;;;;;;16.10;8.13;;;0.90;99.90;;;;;;5055881;28;20021;-83
2021/12/09 02:33:05;;;;;;;13.90;7.97;;;1.00;99.90;;;;;;5055449;28;20025;-83
2021/12/09 02:35:30;;;;;;;19.40;8.77;;;0.90;99.90;;;;;;5037701;28;20025;-83
2021/12/09 02:37:56;;;;;;;20.85;9.35;;;0.90;99.90;;;;;;5055214;28;20115;-83
2021/12/09 02:40:22;;;;;;;19.83;9.30;;;0.90;99.90;;;;;;5070852;28;20083;-83
2021/12/09 02:42:47;;;;;;;16.15;8.73;;;0.80;99.90;;;;;;5075411;28;20028;-83
2021/12/09 02:45:14;;;;;;;18.42;9.57;;;0.90;99.90;;;;;;5075247;28;20038;-83
2021/12/09 02:47:39;;;;;;;19.48;9.57;;;0.80;99.90;;;;;;5075238;28;20043;-83
2021/12/09 02:50:06;;;;;;;16.10;9.13;;;0.80;99.90;;;;;;5075163;28;20468;-83
2021/12/09 02:52:33;;;;;;;15.90;9.18;;;0.80;99.90;;;;;;5074899;28;20395;-83
2021/12/09 02:54:59;;;;;;;16.98;9.07;;;0.80;99.90;;;;;;5057066;28;20020;-83
2021/12/09 02:57:25;;;;;;;17.63;8.32;;;0.80;99.90;;;;;;5073667;28;20035;-84
2021/12/09 02:59:51;;;;;;;17.10;8.88;;;0.80;99.90;;;;;;5056531;28;20074;-83
2021/12/09 03:02:19;;;;;;;14.98;8.02;;;0.80;99.90;;;;;;5073700;28;20021;-83
2021/12/09 03:04:48;;;;;;;17.63;8.63;;;0.70;99.90;;;;;;5073521;28;20120;-83
2021/12/09 03:07:23;;;;;;;21.07;10.50;;;0.70;99.90;;;;;;5074884;28;20028;-83
2021/12/09 03:09:55;;;;;;;23.38;8.82;;;0.70;99.90;;;;;;5056880;28;20294;-83
2021/12/09 03:12:25;;;;;;;19.98;8.73;;;0.80;99.90;;;;;;5074800;28;20025;-83
2021/12/09 03:14:51;;;;;;;21.10;9.60;;;0.60;99.90;;;;;;5074641;28;20017;-83
2021/12/09 03:17:18;;;;;;;15.70;8.52;;;0.60;99.90;;;;;;5056568;28;20032;-83
2021/12/09 03:19:44;;;;;;;14.93;9.15;;;0.70;99.90;;;;;;5056586;28;20490;-83
2021/12/09 03:22:10;;;;;;;17.48;9.25;;;0.70;99.90;;;;;;5074444;28;20074;-84
2021/12/09 03:24:37;;;;;;;21.40;10.05;;;0.70;99.90;;;;;;5056683;28;20107;-83
2021/12/09 03:27:04;;;;;;;22.30;10.05;;;0.70;99.90;;;;;;5056536;28;20043;-83
2021/12/09 03:29:30;;;;;;;21.40;10.00;;;0.60;99.90;;;;;;5074555;28;20017;-83
2021/12/09 03:31:59;;;;;;;17.20;8.57;;;0.60;99.90;;;;;;5074839;28;20032;-83
2021/12/09 03:34:28;;;;;;;15.23;9.88;;;0.60;99.90;;;;;;5074271;28;20041;-83
2021/12/09 03:36:56;;;;;;;19.35;9.95;;;0.60;99.90;;;;;;5074075;28;20035;-84
2021/12/09 03:39:28;;;;;;;15.80;9.27;;;0.60;99.90;;;;;;5055957;28;20530;-83
2021/12/09 03:41:55;;;;;;;21.65;9.88;;;0.70;99.90;;;;;;5074361;28;20476;-83
2021/12/09 03:44:22;;;;;;;18.05;8.80;;;0.50;99.90;;;;;;5074015;28;20357;-83
2021/12/09 03:46:51;;;;;;;17.17;9.27;;;0.50;99.90;;;;;;5074103;28;20029;-83
2021/12/09 03:49:17;;;;;;;17.83;9.60;;;0.50;99.90;;;;;;5073860;28;20016;-83
2021/12/09 03:51:42;;;;;;;17.52;9.57;;;0.40;99.90;;;;;;5073922;28;20472;-83
2021/12/09 03:54:10;;;;;;;16.33;9.93;;;0.60;99.90;;;;;;5074527;28;20085;-83
2021/12/09 03:56:36;;;;;;;18.80;9.90;;;0.50;99.90;;;;;;5074109;28;20021;-83
2021/12/09 03:59:04;;;;;;;20.55;9.70;;;0.40;99.90;;;;;;5074253;28;20151;-83
2021/12/09 04:01:57;;;;;;;21.27;10.25;;;0.40;99.90;;;;;;5074017;28;20153;-83
2021/12/09 04:04:23;;;;;;;20.98;9.48;;;0.40;99.90;;;;;;5074301;28;20035;-83
2021/12/09 04:06:49;;;;;;;21.83;9.20;;;0.30;99.90;;;;;;5073813;28;20730;-83
2021/12/09 04:09:18;;;;;;;17.52;9.05;;;0.50;99.90;;;;;;5073903;28;20017;-83
2021/12/09 04:11:43;;;;;;;24.33;11.32;;;0.40;99.90;;;;;;5055337;28;20025;-83
2021/12/09 04:14:09;;;;;;;19.48;9.82;;;0.30;99.90;;;;;;5074048;28;20053;-83
2021/12/09 04:16:36;;;;;;;20.45;10.07;;;0.40;99.90;;;;;;5074009;28;20108;-83
2021/12/09 04:19:03;;;;;;;23.80;11.32;;;0.40;99.90;;;;;;5055886;28;20032;-83
2021/12/09 04:21:29;;;;;;;24.00;11.73;;;0.30;99.90;;;;;;5074158;28;20045;-83
2021/12/09 04:23:55;;;;;;;20.42;11.23;;;0.40;99.90;;;;;;5073793;28;20560;-83
2021/12/09 04:26:20;;;;;;;25.63;10.80;;;0.30;99.90;;;;;;5073846;28;20434;-82
2021/12/09 04:28:46;;;;;;;21.13;10.63;;;0.30;99.90;;;;;;5073810;28;20028;-83
2021/12/09 04:31:12;;;;;;;21.13;10.57;;;0.30;99.90;;;;;;5073901;28;20105;-83
2021/12/09 04:33:38;;;;;;;21.88;9.90;;;0.20;99.90;;;;;;5073965;28;20021;-83
2021/12/09 04:36:04;;;;;;;18.83;9.68;;;0.30;99.90;;;;;;5073703;28;20432;-83
2021/12/09 04:38:30;;;;;;;16.60;9.07;;;0.20;99.90;;;;;;5055780;28;20047;-83
2021/12/09 04:40:56;;;;;;;22.02;10.55;;;0.20;99.90;;;;;;5073939;28;20623;-83
2021/12/09 04:43:22;;;;;;;18.50;9.90;;;0.20;99.90;;;;;;5073846;28;20020;-83
2021/12/09 04:45:47;;;;;;;21.33;9.13;;;0.20;99.90;;;;;;5074050;28;20021;-83
2021/12/09 04:48:13;;;;;;;22.45;10.93;;;0.10;99.90;;;;;;5055752;28;20032;-83
2021/12/09 04:50:40;;;;;;;19.98;10.02;;;0.30;99.90;;;;;;5073655;28;20035;-83
2021/12/09 04:53:06;;;;;;;18.60;10.55;;;0.20;99.90;;;;;;5073519;28;20031;-83
2021/12/09 04:55:32;;;;;;;18.00;10.23;;;0.30;99.90;;;;;;5073374;28;20024;-83
2021/12/09 04:57:57;;;;;;;77.13;13.57;;;0.20;99.90;;;;;;5055449;28;20028;-83
2021/12/09 05:00:26;;;;;;;18.58;10.30;;;0.20;99.90;;;;;;5073411;28;20108;-83
2021/12/09 05:03:07;;;;;;;21.92;9.65;;;0.20;99.90;;;;;;5073277;28;20028;-83
2021/12/09 05:05:40;;;;;;;20.15;9.82;;;0.20;99.90;;;;;;5073906;28;20017;-83
2021/12/09 05:08:09;;;;;;;22.92;10.80;;;0.30;99.90;;;;;;5055383;28;20387;-83
2021/12/09 05:10:50;;;;;;;24.00;10.13;;;0.20;99.90;;;;;;5073232;28;20028;-83
2021/12/09 05:13:17;;;;;;;20.10;9.93;;;0.20;99.90;;;;;;5055109;28;20082;-83
2021/12/09 05:15:43;;;;;;;23.13;10.07;;;0.30;99.90;;;;;;5073263;28;20045;-83
2021/12/09 05:18:09;;;;;;;22.60;9.57;;;0.20;99.90;;;;;;5073055;28;20024;-83
2021/12/09 05:20:35;;;;;;;23.70;9.95;;;0.10;99.90;;;;;;5073051;28;20094;-83
2021/12/09 05:23:29;;;;;;;18.77;9.82;;;0.10;99.90;;;;;;5073014;28;20029;-83
2021/12/09 05:25:54;;;;;;;20.05;9.73;;;0.10;99.90;;;;;;5076829;28;20020;-83
2021/12/09 05:28:29;;;;;;;24.00;10.93;;;0.10;99.90;;;;;;5096938;28;20375;-83
2021/12/09 05:33:51;;;;;;;17.23;9.70;;;0.10;99.90;;;;;;5096978;28;20769;-83
2021/12/09 05:36:17;;;;;;;17.48;9.75;;;0.10;99.90;;;;;;5058141;28;20411;-84
2021/12/09 05:38:43;;;;;;;20.45;10.05;;;0.00;99.90;;;;;;5076061;28;20472;-84
2021/12/09 05:41:09;;;;;;;22.98;10.13;;;0.10;99.90;;;;;;5058760;28;20028;-83
2021/12/09 05:43:36;;;;;;;19.00;9.25;;;0.10;99.90;;;;;;5052790;28;20024;-84
2021/12/09 05:46:02;;;;;;;22.70;10.38;;;0.20;99.90;;;;;;5058334;28;20017;-83
2021/12/09 05:48:30;;;;;;;19.40;9.57;;;0.20;99.90;;;;;;5058120;28;20055;-83
2021/12/09 05:50:56;;;;;;;18.92;10.02;;;0.30;99.90;;;;;;5070847;28;20062;-83
2021/12/09 05:53:23;;;;;;;16.85;8.98;;;0.10;99.90;;;;;;5076489;28;20052;-84
2021/12/09 05:55:49;;;;;;;18.38;8.98;;;0.20;99.90;;;;;;5066579;28;20081;-84
2021/12/09 05:58:17;;;;;;;17.13;8.48;;;0.10;99.90;;;;;;5075810;28;20029;-84
2021/12/09 06:00:44;;;;;;;15.07;9.10;;;0.10;99.90;;;;;;5076148;28;20036;-84
2021/12/09 06:03:09;;;;;;;19.85;9.32;;;0.10;99.90;;;;;;5076367;28;20020;-84
2021/12/09 06:05:36;;;;;;;17.13;9.00;;;0.10;99.90;;;;;;5073954;28;20027;-84
2021/12/09 06:08:02;;;;;;;20.98;9.60;;;0.10;99.90;;;;;;5043238;28;20032;-84
2021/12/09 06:10:28;;;;;;;23.30;9.57;;;0.10;99.90;;;;;;5038040;28;20518;-84
2021/12/09 06:12:53;;;;;;;17.70;7.75;;;0.20;99.90;;;;;;5058649;28;20100;-83
2021/12/09 06:15:19;;;;;;;23.52;9.30;;;0.20;99.90;;;;;;5075735;28;20047;-83
2021/12/09 06:17:45;;;;;;;18.77;8.98;;;0.20;99.90;;;;;;5075488;28;20476;-84
2021/12/09 06:20:10;;;;;;;40.63;10.00;;;0.30;99.90;;;;;;5075859;28;20071;-80
2021/12/09 06:22:36;;;;;;;21.50;9.32;;;0.20;99.90;;;;;;5075619;28;20103;-83
2021/12/09 06:25:04;;;;;;;23.92;9.68;;;0.20;99.90;;;;;;5075683;28;20087;-84
2021/12/09 06:27:29;;;;;;;19.80;8.80;;;0.30;99.90;;;;;;5075226;28;20730;-83
2021/12/09 06:29:56;;;;;;;19.60;9.10;;;0.30;99.90;;;;;;5075550;28;20021;-83
2021/12/09 06:32:21;;;;;;;17.42;9.43;;;0.20;99.90;;;;;;5075480;28;20486;-84
2021/12/09 06:34:47;;;;;;;16.33;8.70;;;0.20;99.90;;;;;;5056798;28;20020;-84
2021/12/09 06:37:13;;;;;;;26.65;8.68;;;0.20;99.90;;;;;;5075237;28;20392;-84
2021/12/09 06:39:39;;;;;;;21.48;8.77;;;0.20;99.90;;;;;;5055924;28;20178;-84
2021/12/09 06:42:06;;;;;;;16.80;8.27;;;0.20;99.90;;;;;;5073584;28;20024;-83
2021/12/09 06:44:31;;;;;;;20.30;9.02;;;0.30;99.90;;;;;;5073207;28;20036;-83
2021/12/09 06:46:58;;;;;;;15.90;8.00;;;0.20;99.90;;;;;;5073005;28;20021;-83
2021/12/09 06:49:23;;;;;;;17.33;8.30;;;0.10;99.90;;;;;;5054695;28;20046;-83
2021/12/09 06:51:50;;;;;;;17.70;8.82;;;0.10;99.90;;;;;;5072787;28;20028;-83
2021/12/09 06:54:16;;;;;;;20.48;8.52;;;0.20;99.90;;;;;;5072881;28;20035;-84
2021/12/09 06:56:41;;;;;;;18.80;8.70;;;0.10;99.90;;;;;;5065989;28;20017;-84
2021/12/09 06:59:07;;;;;;;15.88;8.25;;;0.10;99.90;;;;;;5052702;28;20035;-83
2021/12/09 07:01:32;;;;;;;14.05;7.90;;;0.30;99.90;;;;;;5054969;28;20017;-83
2021/12/09 07:03:58;;;;;;;18.70;8.80;;;0.20;99.90;;;;;;5068587;28;20033;-82
2021/12/09 07:06:24;;;;;;;16.70;8.90;;;0.10;99.90;;;;;;5093510;28;20548;-83
2021/12/09 07:08:52;;;;;;;20.50;8.68;;;0.10;99.90;;;;;;5081581;28;20052;-83
2021/12/09 07:11:20;;;;;;;18.50;8.18;;;0.10;99.90;;;;;;5061543;28;20098;-82
2021/12/09 07:13:46;;;;;;;21.52;8.75;;;0.10;99.90;;;;;;5052113;28;20097;-83
2021/12/09 07:16:12;;;;;;;23.45;9.10;;;0.10;99.90;;;;;;5063545;28;20024;-83
2021/12/09 07:18:38;;;;;;;19.65;8.10;;;0.30;99.90;;;;;;5082805;28;20050;-83
2021/12/09 07:21:06;;;;;;;20.45;8.45;;;0.20;99.90;;;;;;5086599;28;20020;-82
2021/12/09 07:23:32;;;;;;;18.77;8.60;;;0.10;99.90;;;;;;5073956;28;20103;-82
2021/12/09 07:25:58;;;;;;;15.38;7.75;;;0.20;99.90;;;;;;5055914;28;20526;-82
2021/12/09 07:28:24;;;;;;;18.50;8.27;;;0.20;99.90;;;;;;5073543;28;20020;-82
2021/12/09 07:30:49;;;;;;;17.88;8.18;;;0.20;99.90;;;;;;5053943;28;20111;-83
2021/12/09 07:33:15;;;;;;;23.00;8.02;;;0.20;99.90;;;;;;5074581;28;20077;-83
2021/12/09 07:35:41;;;;;;;17.58;7.65;;;0.10;99.90;;;;;;5074748;28;20107;-83
2021/12/09 07:38:07;;;;;;;17.92;8.00;;;0.10;99.90;;;;;;5092891;28;20403;-83
2021/12/09 07:40:33;;;;;;;13.10;6.45;;;0.10;99.90;;;;;;5072704;28;20519;-82
2021/12/09 07:42:59;;;;;;;22.83;8.75;;;0.20;99.90;;;;;;5072897;28;20021;-83
2021/12/09 07:45:25;;;;;;;16.25;7.90;;;0.00;99.90;;;;;;5072967;28;20052;-83
2021/12/09 07:47:51;;;;;;;22.77;8.15;;;0.10;99.90;;;;;;5072990;28;20121;-83
2021/12/09 07:50:20;;;;;;;19.50;8.40;;;0.20;99.90;;;;;;5074082;28;20055;-83
2021/12/09 07:52:48;;;;;;;14.90;6.97;;;0.20;99.90;;;;;;5080662;28;20119;-83
2021/12/09 07:55:15;;;;;;;17.23;8.80;;;0.20;99.90;;;;;;5055124;28;20429;-83
2021/12/09 07:57:42;;;;;;;18.88;7.97;;;0.20;99.90;;;;;;5071554;28;20170;-82
2021/12/09 08:00:14;;;;;;;17.77;7.68;;;0.30;99.90;;;;;;5079906;28;20032;-83
2021/12/09 08:02:44;;;;;;;15.45;7.90;;;0.30;99.90;;;;;;5063078;28;20024;-82
2021/12/09 08:05:11;;;;;;;14.88;7.75;;;0.40;99.90;;;;;;5085492;28;20328;-82
2021/12/09 08:07:37;;;;;;;20.15;7.15;;;0.40;99.90;;;;;;5080773;28;20377;-83
2021/12/09 08:10:04;;;;;;;19.15;8.05;;;0.40;99.90;;;;;;5072303;28;20020;-82
2021/12/09 08:12:29;;;;;;;16.98;7.65;;;0.60;99.90;;;;;;5071566;28;20035;-82
2021/12/09 08:14:55;;;;;;;13.80;7.50;;;0.60;99.90;;;;;;5064090;28;20404;-83
2021/12/09 08:20:07;;;;;;;19.05;8.48;;;0.90;99.90;;;;;;5052039;28;20028;-82
2021/12/09 08:22:33;;;;;;;15.80;7.53;;;0.80;99.90;;;;;;5066212;28;20016;-83
2021/12/09 08:24:59;;;;;;;19.65;8.10;;;1.00;99.90;;;;;;5051543;28;20017;-83
2021/12/09 08:27:26;;;;;;;22.55;8.43;;;1.00;99.90;;;;;;5061714;28;20021;-82
2021/12/09 08:29:52;;;;;;;17.50;7.53;;;1.20;99.90;;;;;;5051974;28;20023;-82
2021/12/09 08:32:18;;;;;;;21.10;7.68;;;1.30;99.90;;;;;;5055102;28;20080;-82
2021/12/09 08:34:44;;;;;;;20.10;8.15;;;1.20;99.90;;;;;;5054993;28;20029;-82
2021/12/09 08:37:10;;;;;;;13.75;7.10;;;1.30;99.90;;;;;;5072895;28;20372;-82
2021/12/09 08:39:36;;;;;;;18.42;7.45;;;1.50;99.90;;;;;;5070421;28;20439;-82
2021/12/09 08:42:03;;;;;;;20.98;7.93;;;1.50;99.90;;;;;;5052813;28;20570;-83
2021/12/09 08:44:28;;;;;;;23.05;8.13;;;1.60;99.90;;;;;;5068238;28;20016;-83
2021/12/09 08:46:54;;;;;;;17.48;7.57;;;1.60;99.90;;;;;;5040137;28;20361;-83
2021/12/09 08:49:20;;;;;;;15.93;7.40;;;1.80;99.90;;;;;;5050630;28;20029;-83
2021/12/09 08:51:46;;;;;;;17.90;7.57;;;1.90;99.90;;;;;;5070224;28;20028;-83
2021/12/09 08:54:12;;;;;;;22.35;7.80;;;2.10;99.90;;;;;;5071025;28;20020;-83
2021/12/09 08:56:37;;;;;;;17.98;7.72;;;2.10;99.90;;;;;;5065991;28;20021;-83
2021/12/09 08:59:06;;;;;;;13.77;7.13;;;2.20;99.90;;;;;;5051906;28;20029;-83
2021/12/09 09:01:32;;;;;;;20.42;7.65;;;2.30;99.90;;;;;;5070646;28;20027;-83
2021/12/09 09:03:59;;;;;;;18.65;7.63;;;2.40;99.90;;;;;;5076508;28;20136;-83
2021/12/09 09:06:25;;;;;;;17.63;7.22;;;2.40;99.90;;;;;;5074952;28;20084;-83
2021/12/09 09:08:56;;;;;;;18.08;6.25;;;2.50;99.90;;;;;;5073788;28;20025;-83
2021/12/09 09:11:22;;;;;;;17.17;6.95;;;2.60;99.90;;;;;;5074244;28;20027;-83
2021/12/09 09:13:47;;;;;;;13.48;6.50;;;2.80;99.90;;;;;;5074611;28;20021;-82
2021/12/09 09:16:13;;;;;;;17.40;7.05;;;2.70;99.90;;;;;;5056001;28;20028;-83
2021/12/09 09:18:39;;;;;;;14.75;6.57;;;2.80;99.90;;;;;;5073380;28;20056;-83
2021/12/09 09:21:05;;;;;;;13.20;6.38;;;2.80;99.90;;;;;;5074478;28;20025;-83
2021/12/09 09:23:31;;;;;;;15.05;6.72;;;2.80;99.90;;;;;;5068979;28;20025;-83
2021/12/09 09:25:56;;;;;;;24.77;7.38;;;2.80;99.90;;;;;;5059662;28;20060;-83
2021/12/09 09:28:22;;;;;;;21.50;7.82;;;3.00;99.90;;;;;;5035891;28;20078;-83
2021/12/09 09:30:53;;;;;;;18.70;8.05;;;3.10;99.90;;;;;;5054309;28;20021;-83
2021/12/09 09:33:20;;;;;;;18.67;7.35;;;3.20;99.90;;;;;;5056944;28;20028;-84
2021/12/09 09:35:46;;;;;;;21.92;8.40;;;3.20;99.90;;;;;;5058064;28;20033;-84
2021/12/09 09:38:13;;;;;;;17.05;6.82;;;3.20;99.90;;;;;;5054650;28;20025;-84
2021/12/09 09:41:09;;;;;;;21.63;7.72;;;3.30;99.90;;;;;;5035665;28;20048;-82
2021/12/09 09:43:58;;;;;;;18.90;7.53;;;3.30;99.90;;;;;;5054161;28;20021;-83
2021/12/09 09:46:30;;;;;;;18.15;7.47;;;3.40;99.90;;;;;;5053714;28;20025;-84
2021/12/09 09:48:58;;;;;;;18.35;7.10;;;3.40;99.90;;;;;;5046440;28;20029;-83
2021/12/09 09:51:26;;;;;;;20.75;7.90;;;3.40;99.90;;;;;;5072885;28;20032;-83
2021/12/09 09:53:52;;;;;;;23.30;8.98;;;3.50;99.90;;;;;;5055193;28;20080;-83
2021/12/09 09:56:21;;;;;;;22.67;8.68;;;3.50;99.90;;;;;;5073083;28;20522;-83
2021/12/09 09:58:55;;;;;;;28.20;10.63;;;3.70;99.90;;;;;;5073472;28;20499;-82
2021/12/09 10:01:21;;;;;;;30.40;10.93;;;3.80;99.90;;;;;;5072830;28;20281;-82
2021/12/09 10:03:51;;;;;;;25.85;9.40;;;3.90;99.90;;;;;;5073729;28;20070;-83
2021/12/09 10:06:20;;;;;;;31.67;11.25;;;3.90;99.90;;;;;;5035157;28;20761;-83
2021/12/09 10:08:46;;;;;;;25.48;10.75;;;3.90;99.90;;;;;;5045764;28;20444;-83
2021/12/09 10:11:12;;;;;;;30.95;10.77;;;3.90;99.90;;;;;;5072087;28;20536;-83
2021/12/09 10:13:43;;;;;;;23.58;11.15;;;4.00;99.90;;;;;;5072831;28;20017;-83
2021/12/09 10:16:38;;;;;;;28.55;10.55;;;4.00;99.90;;;;;;5072872;28;20099;-82
2021/12/09 10:19:17;;;;;;;27.13;10.77;;;4.10;99.90;;;;;;5050316;28;20118;-82
2021/12/09 10:21:44;;;;;;;27.45;11.25;;;4.20;99.90;;;;;;5067419;28;20037;-83
2021/12/09 10:24:10;;;;;;;20.58;9.70;;;4.30;99.90;;;;;;5072814;28;20540;-83
2021/12/09 10:26:48;;;;;;;23.98;11.68;;;4.30;99.90;;;;;;5079865;28;20488;-82
2021/12/09 10:29:25;;;;;;;33.72;11.20;;;4.40;99.90;;;;;;5054565;28;20028;-82
2021/12/09 10:31:56;;;;;;;26.73;12.25;;;4.50;99.90;;;;;;5072743;28;20035;-82
2021/12/09 10:34:39;;;;;;;30.30;12.88;;;4.50;99.90;;;;;;5064520;28;20032;-84
2021/12/09 10:37:26;;;;;;;24.65;11.57;;;4.40;99.90;;;;;;5057745;28;20108;-82
2021/12/09 10:40:00;;;;;;;25.60;10.88;;;4.40;99.90;;;;;;5054050;28;20048;-82
2021/12/09 10:42:29;;;;;;;32.78;11.65;;;4.40;99.90;;;;;;5066668;28;20020;-82
2021/12/09 10:45:00;;;;;;;26.63;12.38;;;4.40;99.90;;;;;;5055447;28;20304;-82
2021/12/09 10:48:04;;;;;;;23.90;10.85;;;4.40;99.90;;;;;;5057134;28;20039;-82
2021/12/09 10:53:16;;;;;;;24.58;11.65;;;4.50;99.90;;;;;;5059739;28;20052;-82
2021/12/09 10:55:42;;;;;;;28.77;11.52;;;4.50;99.90;;;;;;5052467;28;20044;-82
2021/12/09 10:58:13;;;;;;;27.20;11.13;;;4.60;99.90;;;;;;5054082;28;20064;-82
2021/12/09 11:00:54;;;;;;;29.15;12.77;;;4.60;99.90;;;;;;5063897;28;20024;-82
2021/12/09 11:03:49;;;;;;;21.30;10.02;;;4.60;99.90;;;;;;5055053;28;20031;-81
2021/12/09 11:06:20;;;;;;;28.90;10.95;;;4.60;99.90;;;;;;5052873;28;20492;-82
2021/12/09 11:08:49;;;;;;;31.67;11.45;;;4.70;99.90;;;;;;5058482;28;20036;-82
2021/12/09 11:11:19;;;;;;;22.48;10.30;;;4.70;99.90;;;;;;5067993;28;20303;-82
2021/12/09 11:13:57;;;;;;;23.35;11.77;;;4.70;99.90;;;;;;5057050;28;20028;-82
2021/12/09 11:16:31;;;;;;;33.22;11.93;;;4.70;99.90;;;;;;5067756;28;20017;-82
2021/12/09 11:19:46;;;;;;;23.70;11.10;;;4.90;99.90;;;;;;5067954;28;20035;-82
2021/12/09 11:22:11;;;;;;;24.90;10.82;;;4.90;99.90;;;;;;5052625;28;20112;-82
2021/12/09 11:24:43;;;;;;;28.83;11.25;;;4.90;99.90;;;;;;5058190;28;20024;-82
2021/12/09 11:27:12;;;;;;;26.83;11.15;;;4.90;99.90;;;;;;5053892;28;20029;-82
2021/12/09 11:29:43;;;;;;;31.10;12.00;;;4.90;99.90;;;;;;5058920;28;20048;-81
2021/12/09 11:32:23;;;;;;;28.38;11.63;;;5.00;99.90;;;;;;5053015;28;20024;-82
2021/12/09 11:35:01;;;;;;;23.77;10.98;;;4.90;99.90;;;;;;5062471;28;20535;-81
2021/12/09 11:40:22;;;;;;;22.42;11.60;;;5.00;99.90;;;;;;5050365;28;20045;-82
2021/12/09 11:42:59;;;;;;;20.83;9.38;;;5.10;99.90;;;;;;5052890;28;20083;-82
2021/12/09 11:45:29;;;;;;;29.95;12.18;;;5.00;99.90;;;;;;5051087;28;20013;-81
2021/12/09 11:47:56;;;;;;;28.08;11.23;;;5.00;99.90;;;;;;5051307;28;20108;-82
2021/12/09 11:50:28;;;;;;;29.02;11.60;;;5.10;99.90;;;;;;5051198;28;20029;-81
2021/12/09 11:52:55;;;;;;;24.73;11.80;;;5.20;99.90;;;;;;5067295;28;20025;-82
2021/12/09 11:55:31;;;;;;;27.65;13.25;;;5.10;99.90;;;;;;5070618;28;20028;-82
2021/12/09 11:58:12;;;;;;;30.85;12.10;;;5.10;99.90;;;;;;5052653;28;20066;-81
2021/12/09 12:12:23;;;;;;;;;;;5.00;99.90;;;;;;5071196;28;20090;-83
2021/12/09 12:14:51;;;;;;;29.27;11.57;;;5.10;99.90;;;;;;5070632;28;19912;-83
2021/12/09 12:17:33;;;;;;;23.27;11.10;;;5.10;99.90;;;;;;5052902;28;20055;-84
2021/12/09 12:26:09;;;;;;;29.30;12.32;;;4.90;99.90;;;;;;5069896;28;20336;-83
2021/12/09 12:39:58;;;;;;;25.33;11.50;;;5.30;99.90;;;;;;5055788;28;20410;-83
2021/12/09 12:48:45;;;;;;;23.08;11.52;;;5.20;99.90;;;;;;5058011;28;20499;-83
2021/12/09 12:51:19;;;;;;;26.60;12.05;;;5.20;99.90;;;;;;5056342;28;20429;-83
2021/12/09 12:53:57;;;;;;;24.42;11.48;;;5.30;99.90;;;;;;5057591;28;20028;-83
2021/12/09 12:56:33;;;;;;;25.75;11.63;;;5.20;99.90;;;;;;5074867;28;20025;-83
2021/12/09 12:59:16;;;;;;;26.38;12.45;;;5.20;99.90;;;;;;5057330;28;20480;-83
2021/12/09 13:05:12;;;;;;;27.42;12.32;;;5.40;99.90;;;;;;5041123;28;20286;-83
2021/12/09 13:10:29;;;;;;;26.95;11.82;;;5.30;99.90;;;;;;5075172;28;20030;-84
2021/12/09 13:13:08;;;;;;;23.60;11.45;;;5.30;99.90;;;;;;5075038;28;20019;-83
2021/12/09 13:15:48;;;;;;;33.40;12.52;;;5.40;99.90;;;;;;5056589;28;20131;-83
2021/12/09 13:18:39;;;;;;;;;;;5.40;99.90;;;;;;5057347;28;20395;-83
2021/12/09 13:21:41;;;;;;;29.63;11.60;;;5.40;99.90;;;;;;5075208;28;19909;-83
2021/12/09 13:24:24;;;;;;;30.75;11.98;;;5.40;99.90;;;;;;5074603;28;20101;-83
2021/12/09 13:27:52;;;;;;;27.50;12.90;;;5.40;99.90;;;;;;5037075;28;20021;-83
2021/12/09 13:30:20;;;;;;;26.90;12.65;;;5.50;99.90;;;;;;5046922;28;20056;-82
2021/12/09 13:33:15;;;;;;;31.38;13.15;;;5.40;99.90;;;;;;5054932;28;20028;-83
2021/12/09 13:39:12;;;;;;;26.75;12.40;;;5.40;99.90;;;;;;5054698;28;20029;-83
2021/12/09 13:47:21;;;;;;;25.17;12.55;;;5.40;99.90;;;;;;5074573;28;20042;-83
2021/12/09 13:49:59;;;;;;;21.95;11.23;;;5.30;99.90;;;;;;5056091;28;20115;-83
2021/12/09 13:55:21;;;;;;;24.60;12.88;;;5.40;99.90;;;;;;5074049;28;20067;-83
2021/12/09 13:57:52;;;;;;;28.70;13.60;;;5.40;99.90;;;;;;5055373;28;20439;-84
2021/12/09 14:00:24;;;;;;;25.88;12.75;;;5.40;99.90;;;;;;5052652;28;20079;-83
2021/12/09 14:02:58;;;;;;;30.60;13.07;;;5.40;99.90;;;;;;5062399;28;20096;-84
2021/12/09 14:05:26;;;;;;;25.92;12.93;;;5.40;99.90;;;;;;5068531;28;20024;-83